createdAt,value
2017-11-10T00:00:23.607Z,1006.16
2017-11-10T00:01:23.638Z,1006.22
2017-11-10T00:02:23.667Z,1006.20
2017-11-10T00:03:23.697Z,1006.20
2017-11-10T00:04:23.727Z,1006.18
2017-11-10T00:05:23.758Z,1006.17
2017-11-10T00:06:23.788Z,1006.14
2017-11-10T00:07:23.818Z,1006.11
2017-11-10T00:08:23.849Z,1006.12
2017-11-10T00:09:23.877Z,1006.18
2017-11-10T00:10:23.908Z,1006.17
2017-11-10T00:11:23.941Z,1006.17
2017-11-10T00:12:23.968Z,1006.18
2017-11-10T00:13:23.998Z,1006.19
2017-11-10T00:14:24.028Z,1006.20
2017-11-10T00:15:24.062Z,1006.20
2017-11-10T00:16:24.087Z,1006.26
2017-11-10T00:17:24.118Z,1006.26
2017-11-10T00:18:24.153Z,1006.25
2017-11-10T00:19:24.177Z,1006.28
2017-11-10T00:20:24.207Z,1006.29
2017-11-10T00:21:24.240Z,1006.29
2017-11-10T00:22:24.266Z,1006.29
2017-11-10T00:23:24.297Z,1006.26
2017-11-10T00:24:24.327Z,1006.27
2017-11-10T00:25:24.356Z,1006.26
2017-11-10T00:26:24.436Z,1006.27
2017-11-10T00:27:24.423Z,1006.26
2017-11-10T00:28:24.445Z,1006.25
2017-11-10T00:29:24.476Z,1006.27
2017-11-10T00:30:24.509Z,1006.25
2017-11-10T00:31:24.535Z,1006.23
2017-11-10T00:32:24.564Z,1006.22
2017-11-10T00:33:24.594Z,1006.20
2017-11-10T00:34:24.625Z,1006.20
2017-11-10T00:35:24.653Z,1006.20
2017-11-10T00:36:24.684Z,1006.17
2017-11-10T00:37:24.713Z,1006.13
2017-11-10T00:38:24.744Z,1006.08
2017-11-10T00:39:24.773Z,1006.07
2017-11-10T00:40:24.809Z,1006.04
2017-11-10T00:41:24.832Z,1005.97
2017-11-10T00:42:24.863Z,1005.91
2017-11-10T00:43:24.893Z,1005.93
2017-11-10T00:44:24.938Z,1005.89
2017-11-10T00:45:24.960Z,1005.91
2017-11-10T00:46:24.983Z,1005.86
2017-11-10T00:47:25.010Z,1005.91
2017-11-10T00:48:25.067Z,1005.87
2017-11-10T00:49:25.076Z,1005.85
2017-11-10T00:50:25.102Z,1005.88
2017-11-10T00:51:25.203Z,1005.93
2017-11-10T00:52:25.160Z,1005.95
2017-11-10T00:53:25.191Z,1005.95
2017-11-10T00:54:25.221Z,1005.99
2017-11-10T00:55:25.254Z,1005.99
2017-11-10T00:56:25.280Z,1006.02
2017-11-10T00:57:25.312Z,1006.00
2017-11-10T00:58:25.340Z,1005.94
2017-11-10T00:59:25.368Z,1005.94
2017-11-10T01:00:25.400Z,1005.89
2017-11-10T01:01:25.429Z,1005.88
2017-11-10T01:02:25.460Z,1005.85
2017-11-10T01:03:25.490Z,1005.85
2017-11-10T01:04:25.518Z,1005.84
2017-11-10T01:05:25.548Z,1005.83
2017-11-10T01:06:25.580Z,1005.84
2017-11-10T01:07:25.608Z,1005.80
2017-11-10T01:08:25.638Z,1005.81
2017-11-10T01:09:25.668Z,1005.78
2017-11-10T01:10:25.698Z,1005.75
2017-11-10T01:11:25.728Z,1005.71
2017-11-10T01:12:25.759Z,1005.65
2017-11-10T01:13:25.788Z,1005.63
2017-11-10T01:14:25.817Z,1005.58
2017-11-10T01:15:25.847Z,1005.55
2017-11-10T01:16:25.877Z,1005.53
2017-11-10T01:17:25.907Z,1005.52
2017-11-10T01:18:25.938Z,1005.52
2017-11-10T01:19:25.967Z,1005.47
2017-11-10T01:20:25.997Z,1005.41
2017-11-10T01:21:26.027Z,1005.45
2017-11-10T01:22:26.056Z,1005.47
2017-11-10T01:23:26.086Z,1005.41
2017-11-10T01:24:26.115Z,1005.46
2017-11-10T01:25:26.146Z,1005.48
2017-11-10T01:26:26.176Z,1005.45
2017-11-10T01:27:26.254Z,1005.45
2017-11-10T01:28:26.236Z,1005.46
2017-11-10T01:29:26.266Z,1005.47
2017-11-10T01:30:26.295Z,1005.43
2017-11-10T01:31:26.325Z,1005.44
2017-11-10T01:32:26.354Z,1005.43
2017-11-10T01:33:26.388Z,1005.40
2017-11-10T01:34:26.415Z,1005.38
2017-11-10T01:35:26.444Z,1005.35
2017-11-10T01:36:26.473Z,1005.32
2017-11-10T01:37:26.501Z,1005.27
2017-11-10T01:38:26.533Z,1005.23
2017-11-10T01:39:26.566Z,1005.16
2017-11-10T01:40:26.591Z,1005.11
2017-11-10T01:41:26.621Z,1005.00
2017-11-10T01:42:26.652Z,1004.96
2017-11-10T01:43:26.680Z,1004.94
2017-11-10T01:44:26.713Z,1004.92
2017-11-10T01:45:26.742Z,1004.88
2017-11-10T01:46:26.772Z,1004.83
2017-11-10T01:47:26.800Z,1004.79
2017-11-10T01:48:26.829Z,1004.75
2017-11-10T01:49:26.860Z,1004.72
2017-11-10T01:50:26.890Z,1004.67
2017-11-10T01:51:26.920Z,1004.65
2017-11-10T01:52:26.950Z,1004.64
2017-11-10T01:53:26.980Z,1004.65
2017-11-10T01:54:27.008Z,1004.66
2017-11-10T01:55:27.037Z,1004.67
2017-11-10T01:56:27.068Z,1004.67
2017-11-10T01:57:27.098Z,1004.64
2017-11-10T01:58:27.127Z,1004.59
2017-11-10T01:59:27.156Z,1004.63
2017-11-10T02:00:27.185Z,1004.62
2017-11-10T02:01:27.216Z,1004.61
2017-11-10T02:02:27.245Z,1004.62
2017-11-10T02:03:27.275Z,1004.60
2017-11-10T02:04:27.304Z,1004.57
2017-11-10T02:05:27.333Z,1004.57
2017-11-10T02:06:27.363Z,1004.55
2017-11-10T02:07:27.392Z,1004.47
2017-11-10T02:08:27.472Z,1004.47
2017-11-10T02:09:27.450Z,1004.42
2017-11-10T02:10:27.481Z,1004.44
2017-11-10T02:11:27.511Z,1004.41
2017-11-10T02:12:27.541Z,1004.40
2017-11-10T02:13:27.569Z,1004.39
2017-11-10T02:14:27.599Z,1004.41
2017-11-10T02:15:27.627Z,1004.40
2017-11-10T02:16:27.656Z,1004.37
2017-11-10T02:17:27.688Z,1004.36
2017-11-10T02:18:27.717Z,1004.37
2017-11-10T02:19:27.746Z,1004.37
2017-11-10T02:20:27.776Z,1004.45
2017-11-10T02:21:27.806Z,1004.46
2017-11-10T02:22:27.835Z,1004.55
2017-11-10T02:23:27.865Z,1004.57
2017-11-10T02:24:27.894Z,1004.63
2017-11-10T02:25:27.926Z,1004.65
2017-11-10T02:26:27.953Z,1004.64
2017-11-10T02:27:27.982Z,1004.69
2017-11-10T02:28:28.012Z,1004.70
2017-11-10T02:29:28.040Z,1004.75
2017-11-10T02:30:28.090Z,1004.79
2017-11-10T02:31:28.107Z,1004.77
2017-11-10T02:32:28.131Z,1004.79
2017-11-10T02:33:28.160Z,1004.77
2017-11-10T02:34:28.189Z,1004.70
2017-11-10T02:35:28.218Z,1004.68
2017-11-10T02:36:28.249Z,1004.65
2017-11-10T02:37:28.278Z,1004.69
2017-11-10T02:38:28.311Z,1004.76
2017-11-10T02:39:28.339Z,1004.86
2017-11-10T02:40:28.367Z,1004.91
2017-11-10T02:41:28.397Z,1004.95
2017-11-10T02:42:28.426Z,1004.95
2017-11-10T02:43:28.454Z,1004.99
2017-11-10T02:44:28.484Z,1004.97
2017-11-10T02:45:28.517Z,1004.97
2017-11-10T02:46:28.564Z,1004.93
2017-11-10T02:47:28.573Z,1004.93
2017-11-10T02:48:28.605Z,1004.89
2017-11-10T02:49:28.631Z,1004.88
2017-11-10T02:50:28.663Z,1004.89
2017-11-10T02:51:28.692Z,1004.95
2017-11-10T02:52:28.722Z,1005.01
2017-11-10T02:53:28.751Z,1005.03
2017-11-10T02:54:28.831Z,1005.00
2017-11-10T02:55:28.811Z,1004.95
2017-11-10T02:56:28.840Z,1004.90
2017-11-10T02:57:28.870Z,1004.86
2017-11-10T02:58:28.900Z,1004.83
2017-11-10T02:59:28.931Z,1004.86
2017-11-10T03:00:28.959Z,1004.81
2017-11-10T03:01:28.988Z,1004.88
2017-11-10T03:02:29.017Z,1004.80
2017-11-10T03:03:29.046Z,1004.79
2017-11-10T03:04:29.075Z,1004.75
2017-11-10T03:05:29.106Z,1004.77
2017-11-10T03:06:29.136Z,1004.85
2017-11-10T03:07:29.165Z,1004.87
2017-11-10T03:08:29.195Z,1004.91
2017-11-10T03:09:29.223Z,1004.88
2017-11-10T03:10:29.253Z,1004.84
2017-11-10T03:11:29.281Z,1004.91
2017-11-10T03:12:29.310Z,1004.93
2017-11-10T03:13:29.342Z,1004.91
2017-11-10T03:14:29.371Z,1004.94
2017-11-10T03:15:29.400Z,1004.92
2017-11-10T03:16:29.429Z,1004.93
2017-11-10T03:17:29.460Z,1004.89
2017-11-10T03:18:29.488Z,1004.87
2017-11-10T03:19:29.518Z,1004.83
2017-11-10T03:20:29.598Z,1004.89
2017-11-10T03:21:29.577Z,1004.86
2017-11-10T03:22:29.620Z,1004.86
2017-11-10T03:23:29.636Z,1004.89
2017-11-10T03:24:29.667Z,1004.86
2017-11-10T03:25:29.696Z,1004.83
2017-11-10T03:26:29.727Z,1004.82
2017-11-10T03:27:29.754Z,1004.81
2017-11-10T03:28:29.783Z,1004.83
2017-11-10T03:29:29.814Z,1004.83
2017-11-10T03:30:29.899Z,1004.79
2017-11-10T03:31:29.871Z,1004.84
2017-11-10T03:32:29.900Z,1004.84
2017-11-10T03:33:29.932Z,1004.86
2017-11-10T03:34:29.961Z,1004.78
2017-11-10T03:35:29.998Z,1004.76
2017-11-10T03:36:30.019Z,1004.70
2017-11-10T03:37:30.049Z,1004.68
2017-11-10T03:38:30.085Z,1004.66
2017-11-10T03:39:30.111Z,1004.62
2017-11-10T03:40:30.188Z,1004.57
2017-11-10T03:41:30.166Z,1004.53
2017-11-10T03:42:30.197Z,1004.41
2017-11-10T03:43:30.226Z,1004.36
2017-11-10T03:44:30.255Z,1004.32
2017-11-10T03:45:30.286Z,1004.33
2017-11-10T03:46:30.315Z,1004.31
2017-11-10T03:47:30.344Z,1004.28
2017-11-10T03:48:30.373Z,1004.28
2017-11-10T03:49:30.403Z,1004.28
2017-11-10T03:50:30.433Z,1004.34
2017-11-10T03:51:30.461Z,1004.30
2017-11-10T03:52:30.491Z,1004.39
2017-11-10T03:53:30.534Z,1004.32
2017-11-10T03:54:30.550Z,1004.32
2017-11-10T03:55:30.602Z,1004.29
2017-11-10T03:56:30.609Z,1004.24
2017-11-10T03:57:30.640Z,1004.19
2017-11-10T03:58:30.667Z,1004.16
2017-11-10T03:59:30.697Z,1004.16
2017-11-10T04:00:30.729Z,1004.12
2017-11-10T04:01:30.757Z,1004.11
2017-11-10T04:02:30.787Z,1004.05
2017-11-10T04:03:30.816Z,1004.01
2017-11-10T04:04:30.845Z,1003.95
2017-11-10T04:05:30.874Z,1003.92
2017-11-10T04:06:30.903Z,1003.83
2017-11-10T04:07:30.932Z,1003.75
2017-11-10T04:08:30.963Z,1003.80
2017-11-10T04:09:30.993Z,1003.81
2017-11-10T04:10:31.022Z,1003.87
2017-11-10T04:11:31.049Z,1003.88
2017-11-10T04:12:31.089Z,1003.92
2017-11-10T04:13:31.110Z,1003.87
2017-11-10T04:14:31.140Z,1003.88
2017-11-10T04:15:31.168Z,1003.85
2017-11-10T04:16:31.198Z,1003.85
2017-11-10T04:17:31.228Z,1003.94
2017-11-10T04:18:31.256Z,1003.98
2017-11-10T04:19:31.286Z,1003.99
2017-11-10T04:20:31.314Z,1004.00
2017-11-10T04:21:31.344Z,1004.05
2017-11-10T04:22:31.376Z,1004.09
2017-11-10T04:23:31.404Z,1004.15
2017-11-10T04:24:31.433Z,1004.18
2017-11-10T04:25:31.460Z,1004.31
2017-11-10T04:26:31.513Z,1004.36
2017-11-10T04:27:31.520Z,1004.42
2017-11-10T04:28:31.548Z,1004.48
2017-11-10T04:29:31.581Z,1004.51
2017-11-10T04:30:31.609Z,1004.63
2017-11-10T04:31:31.637Z,1004.69
2017-11-10T04:32:31.672Z,1004.73
2017-11-10T04:33:31.699Z,1004.72
2017-11-10T04:34:31.725Z,1004.68
2017-11-10T04:35:31.758Z,1004.65
2017-11-10T04:36:31.783Z,1004.66
2017-11-10T04:37:31.813Z,1004.62
2017-11-10T04:38:31.843Z,1004.61
2017-11-10T04:39:31.873Z,1004.67
2017-11-10T04:40:31.902Z,1004.70
2017-11-10T04:41:31.934Z,1004.69
2017-11-10T04:42:31.959Z,1004.65
2017-11-10T04:43:31.988Z,1004.66
2017-11-10T04:44:32.018Z,1004.64
2017-11-10T04:45:32.048Z,1004.61
2017-11-10T04:46:32.078Z,1004.65
2017-11-10T04:47:32.106Z,1004.67
2017-11-10T04:48:32.136Z,1004.69
2017-11-10T04:49:32.164Z,1004.76
2017-11-10T04:50:32.195Z,1004.76
2017-11-10T04:51:32.223Z,1004.76
2017-11-10T04:52:32.253Z,1004.70
2017-11-10T04:53:32.283Z,1004.76
2017-11-10T04:54:32.313Z,1004.74
2017-11-10T04:55:32.342Z,1004.75
2017-11-10T04:56:32.375Z,1004.72
2017-11-10T04:57:32.401Z,1004.73
2017-11-10T04:58:32.429Z,1004.79
2017-11-10T04:59:32.458Z,1004.77
2017-11-10T05:00:32.494Z,1004.74
2017-11-10T05:01:32.518Z,1004.73
2017-11-10T05:02:32.546Z,1004.64
2017-11-10T05:03:32.575Z,1004.63
2017-11-10T05:04:32.604Z,1004.62
2017-11-10T05:05:32.639Z,1004.57
2017-11-10T05:06:32.664Z,1004.48
2017-11-10T05:07:32.691Z,1004.43
2017-11-10T05:08:32.722Z,1004.40
2017-11-10T05:09:32.751Z,1004.41
2017-11-10T05:10:32.782Z,1004.41
2017-11-10T05:11:32.809Z,1004.43
2017-11-10T05:12:32.839Z,1004.41
2017-11-10T05:13:32.868Z,1004.39
2017-11-10T05:14:32.901Z,1004.41
2017-11-10T05:15:32.925Z,1004.36
2017-11-10T05:16:32.956Z,1004.31
2017-11-10T05:17:32.988Z,1004.34
2017-11-10T05:18:33.016Z,1004.34
2017-11-10T05:19:33.042Z,1004.32
2017-11-10T05:20:33.074Z,1004.28
2017-11-10T05:21:33.101Z,1004.27
2017-11-10T05:22:33.132Z,1004.29
2017-11-10T05:23:33.161Z,1004.30
2017-11-10T05:24:33.192Z,1004.25
2017-11-10T05:25:33.220Z,1004.26
2017-11-10T05:26:33.249Z,1004.20
2017-11-10T05:27:33.277Z,1004.19
2017-11-10T05:28:33.311Z,1004.17
2017-11-10T05:29:33.337Z,1004.12
2017-11-10T05:30:33.367Z,1004.12
2017-11-10T05:31:33.395Z,1004.13
2017-11-10T05:32:33.426Z,1004.17
2017-11-10T05:33:33.455Z,1004.21
2017-11-10T05:34:33.483Z,1004.18
2017-11-10T05:35:33.511Z,1004.19
2017-11-10T05:36:33.542Z,1004.23
2017-11-10T05:37:33.571Z,1004.22
2017-11-10T05:38:33.601Z,1004.20
2017-11-10T05:39:33.629Z,1004.26
2017-11-10T05:40:33.658Z,1004.25
2017-11-10T05:41:33.690Z,1004.30
2017-11-10T05:42:33.724Z,1004.27
2017-11-10T05:43:33.747Z,1004.32
2017-11-10T05:44:33.826Z,1004.31
2017-11-10T05:45:33.807Z,1004.34
2017-11-10T05:46:33.836Z,1004.32
2017-11-10T05:47:33.863Z,1004.37
2017-11-10T05:48:33.894Z,1004.32
2017-11-10T05:49:33.924Z,1004.38
2017-11-10T05:50:33.953Z,1004.43
2017-11-10T05:51:33.980Z,1004.43
2017-11-10T05:52:34.010Z,1004.41
2017-11-10T05:53:34.041Z,1004.40
2017-11-10T05:54:34.071Z,1004.49
2017-11-10T05:55:34.100Z,1004.49
2017-11-10T05:56:34.129Z,1004.50
2017-11-10T05:57:34.158Z,1004.53
2017-11-10T05:58:34.187Z,1004.55
2017-11-10T05:59:34.216Z,1004.65
2017-11-10T06:00:34.246Z,1004.71
2017-11-10T06:01:34.274Z,1004.66
2017-11-10T06:02:34.304Z,1004.71
2017-11-10T06:03:34.332Z,1004.70
2017-11-10T06:04:34.362Z,1004.73
2017-11-10T06:05:34.393Z,1004.74
2017-11-10T06:06:34.421Z,1004.77
2017-11-10T06:07:34.449Z,1004.77
2017-11-10T06:08:34.479Z,1004.78
2017-11-10T06:09:34.507Z,1004.78
2017-11-10T06:10:34.538Z,1004.81
2017-11-10T06:11:34.566Z,1004.78
2017-11-10T06:12:34.635Z,1004.76
2017-11-10T06:13:34.624Z,1004.76
2017-11-10T06:14:34.653Z,1004.77
2017-11-10T06:15:34.732Z,1004.70
2017-11-10T06:16:34.710Z,1004.71
2017-11-10T06:17:34.740Z,1004.70
2017-11-10T06:18:34.768Z,1004.70
2017-11-10T06:19:34.798Z,1004.68
2017-11-10T06:20:34.826Z,1004.63
2017-11-10T06:21:34.856Z,1004.61
2017-11-10T06:22:34.887Z,1004.54
2017-11-10T06:23:34.914Z,1004.51
2017-11-10T06:24:34.942Z,1004.48
2017-11-10T06:25:34.972Z,1004.48
2017-11-10T06:26:35.001Z,1004.48
2017-11-10T06:27:35.031Z,1004.48
2017-11-10T06:28:35.060Z,1004.50
2017-11-10T06:29:35.088Z,1004.54
2017-11-10T06:30:35.119Z,1004.47
2017-11-10T06:31:35.146Z,1004.46
2017-11-10T06:32:35.176Z,1004.46
2017-11-10T06:33:35.203Z,1004.39
2017-11-10T06:34:35.232Z,1004.35
2017-11-10T06:35:35.262Z,1004.33
2017-11-10T06:36:35.291Z,1004.29
2017-11-10T06:37:35.319Z,1004.28
2017-11-10T06:38:35.350Z,1004.30
2017-11-10T06:39:35.377Z,1004.29
2017-11-10T06:40:35.407Z,1004.27
2017-11-10T06:41:35.535Z,1004.25
2017-11-10T06:42:35.467Z,1004.30
2017-11-10T06:43:35.493Z,1004.31
2017-11-10T06:44:35.522Z,1004.30
2017-11-10T06:45:35.552Z,1004.29
2017-11-10T06:46:35.581Z,1004.26
2017-11-10T06:47:35.612Z,1004.29
2017-11-10T06:48:35.640Z,1004.31
2017-11-10T06:49:35.667Z,1004.30
2017-11-10T06:50:35.696Z,1004.33
2017-11-10T06:51:35.724Z,1004.30
2017-11-10T06:52:35.754Z,1004.33
2017-11-10T06:53:35.782Z,1004.36
2017-11-10T06:54:35.810Z,1004.33
2017-11-10T06:55:35.840Z,1004.28
2017-11-10T06:56:35.918Z,1004.27
2017-11-10T06:57:35.899Z,1004.26
2017-11-10T06:58:35.926Z,1004.25
2017-11-10T06:59:35.954Z,1004.25
2017-11-10T07:00:35.984Z,1004.23
2017-11-10T07:01:36.011Z,1004.21
2017-11-10T07:02:36.041Z,1004.19
2017-11-10T07:03:36.068Z,1004.18
2017-11-10T07:04:36.098Z,1004.18
2017-11-10T07:05:36.128Z,1004.18
2017-11-10T07:06:36.160Z,1004.21
2017-11-10T07:07:36.186Z,1004.20
2017-11-10T07:08:36.216Z,1004.25
2017-11-10T07:09:36.241Z,1004.27
2017-11-10T07:10:36.270Z,1004.26
2017-11-10T07:11:36.298Z,1004.30
2017-11-10T07:12:36.327Z,1004.30
2017-11-10T07:13:36.356Z,1004.36
2017-11-10T07:14:36.385Z,1004.35
2017-11-10T07:15:36.413Z,1004.33
2017-11-10T07:16:36.444Z,1004.34
2017-11-10T07:17:36.472Z,1004.29
2017-11-10T07:18:36.501Z,1004.31
2017-11-10T07:19:36.529Z,1004.25
2017-11-10T07:20:36.558Z,1004.24
2017-11-10T07:21:36.587Z,1004.30
2017-11-10T07:22:36.615Z,1004.22
2017-11-10T07:23:36.644Z,1004.32
2017-11-10T07:24:36.674Z,1004.31
2017-11-10T07:25:36.701Z,1004.28
2017-11-10T07:26:36.732Z,1004.26
2017-11-10T07:27:36.760Z,1004.27
2017-11-10T07:28:36.790Z,1004.25
2017-11-10T07:29:36.818Z,1004.24
2017-11-10T07:30:36.855Z,1004.26
2017-11-10T07:31:36.875Z,1004.29
2017-11-10T07:32:36.906Z,1004.30
2017-11-10T07:33:36.934Z,1004.31
2017-11-10T07:34:36.967Z,1004.34
2017-11-10T07:35:36.992Z,1004.30
2017-11-10T07:36:37.022Z,1004.33
2017-11-10T07:37:37.051Z,1004.34
2017-11-10T07:38:37.080Z,1004.37
2017-11-10T07:39:37.108Z,1004.35
2017-11-10T07:40:37.164Z,1004.35
2017-11-10T07:41:37.167Z,1004.33
2017-11-10T07:42:37.197Z,1004.22
2017-11-10T07:43:37.225Z,1004.25
2017-11-10T07:44:37.254Z,1004.25
2017-11-10T07:45:37.284Z,1004.24
2017-11-10T07:46:37.313Z,1004.33
2017-11-10T07:47:37.340Z,1004.29
2017-11-10T07:48:37.371Z,1004.27
2017-11-10T07:49:37.401Z,1004.26
2017-11-10T07:50:37.432Z,1004.17
2017-11-10T07:51:37.463Z,1004.21
2017-11-10T07:52:37.489Z,1004.08
2017-11-10T07:53:37.518Z,1004.07
2017-11-10T07:54:37.547Z,1004.01
2017-11-10T07:55:37.578Z,1003.92
2017-11-10T07:56:37.605Z,1004.00
2017-11-10T07:57:37.638Z,1004.00
2017-11-10T07:58:37.666Z,1004.01
2017-11-10T07:59:37.693Z,1004.03
2017-11-10T08:00:37.721Z,1004.03
2017-11-10T08:01:37.751Z,1004.03
2017-11-10T08:02:37.781Z,1004.02
2017-11-10T08:03:37.811Z,1004.05
2017-11-10T08:04:37.838Z,1004.08
2017-11-10T08:05:37.870Z,1004.07
2017-11-10T08:06:37.898Z,1004.05
2017-11-10T08:07:37.928Z,1004.06
2017-11-10T08:08:38.008Z,1004.02
2017-11-10T08:09:37.992Z,1004.04
2017-11-10T08:10:38.016Z,1004.01
2017-11-10T08:11:38.044Z,1004.00
2017-11-10T08:12:38.074Z,1004.01
2017-11-10T08:13:38.104Z,1003.99
2017-11-10T08:14:38.134Z,1003.97
2017-11-10T08:15:38.169Z,1003.95
2017-11-10T08:16:38.192Z,1003.92
2017-11-10T08:17:38.221Z,1003.87
2017-11-10T08:18:38.250Z,1003.91
2017-11-10T08:19:38.279Z,1003.89
2017-11-10T08:20:38.316Z,1003.83
2017-11-10T08:21:38.338Z,1003.85
2017-11-10T08:22:38.369Z,1003.82
2017-11-10T08:23:38.396Z,1003.85
2017-11-10T08:24:38.425Z,1003.84
2017-11-10T08:25:38.456Z,1003.85
2017-11-10T08:26:38.485Z,1003.86
2017-11-10T08:27:38.512Z,1003.90
2017-11-10T08:28:38.542Z,1003.87
2017-11-10T08:29:38.574Z,1003.86
2017-11-10T08:30:38.610Z,1003.83
2017-11-10T08:31:38.629Z,1003.83
2017-11-10T08:32:38.659Z,1003.89
2017-11-10T08:33:38.690Z,1003.86
2017-11-10T08:34:38.722Z,1003.84
2017-11-10T08:35:38.748Z,1003.80
2017-11-10T08:36:38.821Z,1003.82
2017-11-10T08:37:38.859Z,1003.77
2017-11-10T08:38:38.886Z,1003.81
2017-11-10T08:39:38.865Z,1003.81
2017-11-10T08:40:38.896Z,1003.80
2017-11-10T08:41:38.924Z,1003.82
2017-11-10T08:42:38.954Z,1003.76
2017-11-10T08:43:38.984Z,1003.80
2017-11-10T08:44:39.049Z,1003.78
2017-11-10T08:45:39.042Z,1003.81
2017-11-10T08:46:39.072Z,1003.81
2017-11-10T08:47:39.103Z,1003.80
2017-11-10T08:48:39.135Z,1003.87
2017-11-10T08:49:39.162Z,1003.85
2017-11-10T08:50:39.192Z,1003.85
2017-11-10T08:51:39.221Z,1003.84
2017-11-10T08:52:39.259Z,1003.85
2017-11-10T08:53:39.279Z,1003.86
2017-11-10T08:54:39.309Z,1003.83
2017-11-10T08:55:39.338Z,1003.80
2017-11-10T08:56:39.399Z,1003.84
2017-11-10T08:57:39.398Z,1003.80
2017-11-10T08:58:39.429Z,1003.78
2017-11-10T08:59:39.456Z,1003.75
2017-11-10T09:00:39.486Z,1003.73
2017-11-10T09:01:39.520Z,1003.65
2017-11-10T09:02:39.548Z,1003.69
2017-11-10T09:03:39.576Z,1003.66
2017-11-10T09:04:39.604Z,1003.58
2017-11-10T09:05:39.638Z,1003.61
2017-11-10T09:06:39.665Z,1003.56
2017-11-10T09:07:39.693Z,1003.53
2017-11-10T09:08:39.723Z,1003.55
2017-11-10T09:09:39.752Z,1003.46
2017-11-10T09:10:39.783Z,1003.45
2017-11-10T09:11:39.813Z,1003.47
2017-11-10T09:12:39.845Z,1003.42
2017-11-10T09:13:39.871Z,1003.50
2017-11-10T09:14:39.902Z,1003.46
2017-11-10T09:15:39.930Z,1003.42
2017-11-10T09:16:39.961Z,1003.45
2017-11-10T09:17:39.991Z,1003.45
2017-11-10T09:18:40.022Z,1003.44
2017-11-10T09:19:40.052Z,1003.47
2017-11-10T09:20:40.080Z,1003.37
2017-11-10T09:21:40.109Z,1003.37
2017-11-10T09:22:40.140Z,1003.36
2017-11-10T09:23:40.169Z,1003.29
2017-11-10T09:24:40.199Z,1003.32
2017-11-10T09:25:40.278Z,1003.30
2017-11-10T09:26:40.258Z,1003.25
2017-11-10T09:27:40.286Z,1003.23
2017-11-10T09:28:40.323Z,1003.29
2017-11-10T09:29:40.347Z,1003.23
2017-11-10T09:30:40.379Z,1003.27
2017-11-10T09:31:40.405Z,1003.26
2017-11-10T09:32:40.438Z,1003.24
2017-11-10T09:33:40.467Z,1003.22
2017-11-10T09:34:40.496Z,1003.25
2017-11-10T09:35:40.526Z,1003.24
2017-11-10T09:36:40.705Z,1003.28
2017-11-10T09:37:40.586Z,1003.28
2017-11-10T09:38:40.617Z,1003.22
2017-11-10T09:39:40.655Z,1003.28
2017-11-10T09:40:40.674Z,1003.32
2017-11-10T09:41:40.706Z,1003.36
2017-11-10T09:42:40.736Z,1003.32
2017-11-10T09:43:40.765Z,1003.33
2017-11-10T09:44:40.793Z,1003.38
2017-11-10T09:45:40.824Z,1003.35
2017-11-10T09:46:40.857Z,1003.31
2017-11-10T09:47:40.882Z,1003.36
2017-11-10T09:48:40.912Z,1003.33
2017-11-10T09:49:40.945Z,1003.23
2017-11-10T09:50:40.973Z,1003.23
2017-11-10T09:51:41.013Z,1003.14
2017-11-10T09:52:41.031Z,1003.13
2017-11-10T09:53:41.064Z,1003.06
2017-11-10T09:54:41.093Z,1003.06
2017-11-10T09:55:41.124Z,1002.99
2017-11-10T09:56:41.152Z,1002.95
2017-11-10T09:57:41.182Z,1002.98
2017-11-10T09:58:41.211Z,1002.99
2017-11-10T09:59:41.242Z,1003.01
2017-11-10T10:00:41.272Z,1003.05
2017-11-10T10:01:41.303Z,1003.01
2017-11-10T10:02:41.332Z,1003.03
2017-11-10T10:03:41.361Z,1003.08
2017-11-10T10:04:41.390Z,1002.97
2017-11-10T10:05:41.421Z,1003.01
2017-11-10T10:06:41.452Z,1002.95
2017-11-10T10:07:41.481Z,1002.97
2017-11-10T10:08:41.510Z,1002.95
2017-11-10T10:09:41.541Z,1002.91
2017-11-10T10:10:41.570Z,1002.92
2017-11-10T10:11:41.599Z,1002.95
2017-11-10T10:12:41.630Z,1002.88
2017-11-10T10:13:41.662Z,1002.84
2017-11-10T10:14:41.689Z,1002.96
2017-11-10T10:15:41.719Z,1003.02
2017-11-10T10:16:41.757Z,1002.96
2017-11-10T10:17:41.777Z,1002.91
2017-11-10T10:18:41.810Z,1002.89
2017-11-10T10:19:41.839Z,1002.83
2017-11-10T10:20:41.868Z,1002.75
2017-11-10T10:21:41.898Z,1002.77
2017-11-10T10:22:41.927Z,1002.81
2017-11-10T10:23:41.958Z,1002.71
2017-11-10T10:24:41.987Z,1002.66
2017-11-10T10:25:42.017Z,1002.62
2017-11-10T10:26:42.053Z,1002.60
2017-11-10T10:27:42.077Z,1002.71
2017-11-10T10:28:42.107Z,1002.67
2017-11-10T10:29:42.137Z,1002.66
2017-11-10T10:30:42.167Z,1002.71
2017-11-10T10:31:42.196Z,1002.62
2017-11-10T10:32:42.226Z,1002.70
2017-11-10T10:33:42.257Z,1002.62
2017-11-10T10:34:42.287Z,1002.66
2017-11-10T10:35:42.317Z,1002.60
2017-11-10T10:36:42.345Z,1002.62
2017-11-10T10:37:42.377Z,1002.55
2017-11-10T10:38:42.409Z,1002.54
2017-11-10T10:39:42.439Z,1002.54
2017-11-10T10:40:42.465Z,1002.58
2017-11-10T10:41:42.507Z,1002.53
2017-11-10T10:42:42.526Z,1002.57
2017-11-10T10:43:42.556Z,1002.53
2017-11-10T10:44:42.587Z,1002.44
2017-11-10T10:45:42.616Z,1002.36
2017-11-10T10:46:42.646Z,1002.31
2017-11-10T10:47:42.727Z,1002.33
2017-11-10T10:48:42.704Z,1002.30
2017-11-10T10:49:42.737Z,1002.29
2017-11-10T10:50:42.766Z,1002.25
2017-11-10T10:51:42.819Z,1002.33
2017-11-10T10:52:42.826Z,1002.25
2017-11-10T10:53:42.867Z,1002.22
2017-11-10T10:54:42.887Z,1002.15
2017-11-10T10:55:42.917Z,1002.16
2017-11-10T10:56:42.946Z,1002.19
2017-11-10T10:57:42.997Z,1002.22
2017-11-10T10:58:43.012Z,1002.24
2017-11-10T10:59:43.036Z,1002.18
2017-11-10T11:00:43.068Z,1002.21
2017-11-10T11:01:43.098Z,1002.21
2017-11-10T11:02:43.129Z,1002.20
2017-11-10T11:03:43.158Z,1002.10
2017-11-10T11:04:43.188Z,1002.06
2017-11-10T11:05:43.218Z,1002.00
2017-11-10T11:06:43.250Z,1002.00
2017-11-10T11:07:43.279Z,1001.97
2017-11-10T11:08:43.309Z,1001.97
2017-11-10T11:09:43.340Z,1001.92
2017-11-10T11:10:43.370Z,1001.88
2017-11-10T11:11:43.401Z,1001.87
2017-11-10T11:12:43.429Z,1001.80
2017-11-10T11:13:43.460Z,1001.75
2017-11-10T11:14:43.490Z,1001.72
2017-11-10T11:15:43.519Z,1001.69
2017-11-10T11:16:43.550Z,1001.70
2017-11-10T11:17:43.581Z,1001.64
2017-11-10T11:18:43.611Z,1001.65
2017-11-10T11:19:43.640Z,1001.73
2017-11-10T11:20:43.671Z,1001.69
2017-11-10T11:21:43.702Z,1001.69
2017-11-10T11:22:43.732Z,1001.68
2017-11-10T11:23:43.760Z,1001.72
2017-11-10T11:24:43.791Z,1001.69
2017-11-10T11:25:43.821Z,1001.70
2017-11-10T11:26:43.852Z,1001.76
2017-11-10T11:27:43.881Z,1001.64
2017-11-10T11:28:43.911Z,1001.59
2017-11-10T11:29:43.942Z,1001.61
2017-11-10T11:30:43.971Z,1001.62
2017-11-10T11:31:44.000Z,1001.65
2017-11-10T11:32:44.029Z,1001.58
2017-11-10T11:33:44.062Z,1001.63
2017-11-10T11:34:44.093Z,1001.57
2017-11-10T11:35:44.121Z,1001.59
2017-11-10T11:36:44.151Z,1001.62
2017-11-10T11:37:44.181Z,1001.56
2017-11-10T11:38:44.212Z,1001.59
2017-11-10T11:39:44.241Z,1001.56
2017-11-10T11:40:44.271Z,1001.56
2017-11-10T11:41:44.300Z,1001.51
2017-11-10T11:42:44.330Z,1001.52
2017-11-10T11:43:44.361Z,1001.53
2017-11-10T11:44:44.392Z,1001.54
2017-11-10T11:45:44.422Z,1001.53
2017-11-10T11:46:44.452Z,1001.58
2017-11-10T11:47:44.482Z,1001.51
2017-11-10T11:48:44.512Z,1001.52
2017-11-10T11:49:44.541Z,1001.51
2017-11-10T11:50:44.574Z,1001.42
2017-11-10T11:51:44.603Z,1001.52
2017-11-10T11:52:44.639Z,1001.48
2017-11-10T11:53:44.673Z,1001.44
2017-11-10T11:54:44.693Z,1001.37
2017-11-10T11:55:44.752Z,1001.33
2017-11-10T11:56:44.754Z,1001.40
2017-11-10T11:57:44.782Z,1001.43
2017-11-10T11:58:44.815Z,1001.42
2017-11-10T11:59:44.842Z,1001.39
2017-11-10T12:00:44.873Z,1001.33
2017-11-10T12:01:44.904Z,1001.32
2017-11-10T12:02:44.935Z,1001.33
2017-11-10T12:03:44.969Z,1001.36
2017-11-10T12:04:44.995Z,1001.30
2017-11-10T12:05:45.025Z,1001.33